sensor_id;sensor_type;location;lat;lon;timestamp;temperature;humidity
71047;SHT31;58703;48.978;8.982;2024-03-29T00:01:21;3.04;90.85
71047;SHT31;58703;48.978;8.982;2024-03-29T00:03:47;3.30;89.41
71047;SHT31;58703;48.978;8.982;2024-03-29T00:06:12;3.52;88.35
71047;SHT31;58703;48.978;8.982;2024-03-29T00:08:38;3.69;87.39
71047;SHT31;58703;48.978;8.982;2024-03-29T00:11:04;3.75;87.31
71047;SHT31;58703;48.978;8.982;2024-03-29T00:13:29;3.79;87.00
71047;SHT31;58703;48.978;8.982;2024-03-29T00:15:55;4.00;85.44
71047;SHT31;58703;48.978;8.982;2024-03-29T00:18:20;4.07;85.52
71047;SHT31;58703;48.978;8.982;2024-03-29T00:20:47;4.11;86.14
71047;SHT31;58703;48.978;8.982;2024-03-29T00:23:12;3.97;86.95
71047;SHT31;58703;48.978;8.982;2024-03-29T00:25:38;3.95;87.42
71047;SHT31;58703;48.978;8.982;2024-03-29T00:28:03;3.87;86.54
71047;SHT31;58703;48.978;8.982;2024-03-29T00:30:29;4.06;85.28
71047;SHT31;58703;48.978;8.982;2024-03-29T00:32:54;4.38;83.58
71047;SHT31;58703;48.978;8.982;2024-03-29T00:35:20;4.34;84.51
71047;SHT31;58703;48.978;8.982;2024-03-29T00:37:48;4.40;84.30
71047;SHT31;58703;48.978;8.982;2024-03-29T00:40:13;4.46;83.59
71047;SHT31;58703;48.978;8.982;2024-03-29T00:42:39;4.65;83.09
71047;SHT31;58703;48.978;8.982;2024-03-29T00:45:05;4.84;81.39
71047;SHT31;58703;48.978;8.982;2024-03-29T00:47:30;5.11;80.45
71047;SHT31;58703;48.978;8.982;2024-03-29T00:49:56;5.19;81.61
71047;SHT31;58703;48.978;8.982;2024-03-29T00:52:21;5.43;79.98
71047;SHT31;58703;48.978;8.982;2024-03-29T00:54:47;5.52;79.41
71047;SHT31;58703;48.978;8.982;2024-03-29T00:57:12;5.57;80.07
71047;SHT31;58703;48.978;8.982;2024-03-29T00:59:39;5.64;79.63
71047;SHT31;58703;48.978;8.982;2024-03-29T01:02:05;5.90;78.44
71047;SHT31;58703;48.978;8.982;2024-03-29T01:04:30;6.05;78.12
71047;SHT31;58703;48.978;8.982;2024-03-29T01:06:56;6.17;77.87
71047;SHT31;58703;48.978;8.982;2024-03-29T01:09:21;6.38;77.01
71047;SHT31;58703;48.978;8.982;2024-03-29T01:11:47;6.61;75.36
71047;SHT31;58703;48.978;8.982;2024-03-29T01:14:13;6.61;75.34
71047;SHT31;58703;48.978;8.982;2024-03-29T01:16:38;6.55;75.89
71047;SHT31;58703;48.978;8.982;2024-03-29T01:19:04;6.42;76.46
71047;SHT31;58703;48.978;8.982;2024-03-29T01:21:30;6.21;77.70
71047;SHT31;58703;48.978;8.982;2024-03-29T01:23:56;6.14;79.03
71047;SHT31;58703;48.978;8.982;2024-03-29T01:26:22;6.21;78.59
71047;SHT31;58703;48.978;8.982;2024-03-29T01:28:47;6.28;77.68
71047;SHT31;58703;48.978;8.982;2024-03-29T01:31:13;6.55;75.36
71047;SHT31;58703;48.978;8.982;2024-03-29T01:33:38;6.62;76.28
71047;SHT31;58703;48.978;8.982;2024-03-29T01:36:07;6.56;77.50
71047;SHT31;58703;48.978;8.982;2024-03-29T01:38:33;6.36;78.53
71047;SHT31;58703;48.978;8.982;2024-03-29T01:40:59;6.34;77.83
71047;SHT31;58703;48.978;8.982;2024-03-29T01:43:24;6.46;77.62
71047;SHT31;58703;48.978;8.982;2024-03-29T01:45:54;6.53;77.60
71047;SHT31;58703;48.978;8.982;2024-03-29T01:48:24;6.62;77.06
71047;SHT31;58703;48.978;8.982;2024-03-29T01:50:51;6.49;77.84
71047;SHT31;58703;48.978;8.982;2024-03-29T01:53:19;6.50;77.15
71047;SHT31;58703;48.978;8.982;2024-03-29T01:55:44;6.69;76.02
71047;SHT31;58703;48.978;8.982;2024-03-29T01:58:11;6.68;76.98
71047;SHT31;58703;48.978;8.982;2024-03-29T02:00:39;6.52;78.42
71047;SHT31;58703;48.978;8.982;2024-03-29T02:03:06;6.59;76.84
71047;SHT31;58703;48.978;8.982;2024-03-29T02:05:42;6.82;76.23
71047;SHT31;58703;48.978;8.982;2024-03-29T02:08:09;6.76;76.22
71047;SHT31;58703;48.978;8.982;2024-03-29T02:10:36;6.86;75.73
71047;SHT31;58703;48.978;8.982;2024-03-29T02:13:02;6.73;76.63
71047;SHT31;58703;48.978;8.982;2024-03-29T02:15:28;6.83;76.49
71047;SHT31;58703;48.978;8.982;2024-03-29T02:17:54;6.71;77.70
71047;SHT31;58703;48.978;8.982;2024-03-29T02:20:20;6.48;77.79
71047;SHT31;58703;48.978;8.982;2024-03-29T02:22:54;6.46;77.85
71047;SHT31;58703;48.978;8.982;2024-03-29T02:25:20;6.36;78.38
71047;SHT31;58703;48.978;8.982;2024-03-29T02:27:47;6.31;78.56
71047;SHT31;58703;48.978;8.982;2024-03-29T02:30:16;6.29;79.08
71047;SHT31;58703;48.978;8.982;2024-03-29T02:32:42;6.52;78.10
71047;SHT31;58703;48.978;8.982;2024-03-29T02:35:08;6.46;78.95
71047;SHT31;58703;48.978;8.982;2024-03-29T02:37:36;6.59;77.47
71047;SHT31;58703;48.978;8.982;2024-03-29T02:40:03;6.56;78.18
71047;SHT31;58703;48.978;8.982;2024-03-29T02:42:29;6.69;77.49
71047;SHT31;58703;48.978;8.982;2024-03-29T02:44:54;6.72;77.66
71047;SHT31;58703;48.978;8.982;2024-03-29T02:47:21;6.72;77.26
71047;SHT31;58703;48.978;8.982;2024-03-29T02:49:47;6.83;76.21
71047;SHT31;58703;48.978;8.982;2024-03-29T02:52:12;6.85;77.41
71047;SHT31;58703;48.978;8.982;2024-03-29T02:54:39;6.71;77.66
71047;SHT31;58703;48.978;8.982;2024-03-29T02:57:04;6.66;77.80
71047;SHT31;58703;48.978;8.982;2024-03-29T02:59:30;6.61;79.29
71047;SHT31;58703;48.978;8.982;2024-03-29T03:01:55;6.65;77.99
71047;SHT31;58703;48.978;8.982;2024-03-29T03:04:21;6.66;78.44
71047;SHT31;58703;48.978;8.982;2024-03-29T03:06:46;6.65;78.68
71047;SHT31;58703;48.978;8.982;2024-03-29T03:09:12;6.69;79.00
71047;SHT31;58703;48.978;8.982;2024-03-29T03:11:56;6.73;79.69
71047;SHT31;58703;48.978;8.982;2024-03-29T03:14:21;6.72;77.87
71047;SHT31;58703;48.978;8.982;2024-03-29T03:16:47;6.64;80.94
71047;SHT31;58703;48.978;8.982;2024-03-29T03:19:13;6.69;78.80
71047;SHT31;58703;48.978;8.982;2024-03-29T03:21:38;6.64;79.57
71047;SHT31;58703;48.978;8.982;2024-03-29T03:24:04;6.62;78.59
71047;SHT31;58703;48.978;8.982;2024-03-29T03:26:30;6.69;79.10
71047;SHT31;58703;48.978;8.982;2024-03-29T03:28:55;6.80;78.36
71047;SHT31;58703;48.978;8.982;2024-03-29T03:31:21;6.69;78.88
71047;SHT31;58703;48.978;8.982;2024-03-29T03:33:47;6.90;77.03
71047;SHT31;58703;48.978;8.982;2024-03-29T03:36:13;6.97;77.80
71047;SHT31;58703;48.978;8.982;2024-03-29T03:38:38;6.99;78.32
71047;SHT31;58703;48.978;8.982;2024-03-29T03:41:05;6.92;80.10
71047;SHT31;58703;48.978;8.982;2024-03-29T03:43:31;6.75;82.14
71047;SHT31;58703;48.978;8.982;2024-03-29T03:46:01;6.57;83.61
71047;SHT31;58703;48.978;8.982;2024-03-29T03:48:27;6.17;88.60
71047;SHT31;58703;48.978;8.982;2024-03-29T03:50:55;6.04;88.16
71047;SHT31;58703;48.978;8.982;2024-03-29T03:53:21;6.20;85.83
71047;SHT31;58703;48.978;8.982;2024-03-29T03:55:46;6.21;85.52
71047;SHT31;58703;48.978;8.982;2024-03-29T03:58:12;6.26;86.16
71047;SHT31;58703;48.978;8.982;2024-03-29T04:00:37;6.22;86.48
71047;SHT31;58703;48.978;8.982;2024-03-29T04:03:03;6.28;85.72
71047;SHT31;58703;48.978;8.982;2024-03-29T04:05:29;6.42;83.83
71047;SHT31;58703;48.978;8.982;2024-03-29T04:07:57;6.34;85.32
71047;SHT31;58703;48.978;8.982;2024-03-29T04:10:23;6.39;84.92
71047;SHT31;58703;48.978;8.982;2024-03-29T04:12:50;6.45;82.61
71047;SHT31;58703;48.978;8.982;2024-03-29T04:15:16;6.62;83.30
71047;SHT31;58703;48.978;8.982;2024-03-29T04:17:41;6.68;84.15
71047;SHT31;58703;48.978;8.982;2024-03-29T04:20:07;6.72;82.12
71047;SHT31;58703;48.978;8.982;2024-03-29T04:22:33;6.92;81.57
71047;SHT31;58703;48.978;8.982;2024-03-29T04:24:59;7.01;80.50
71047;SHT31;58703;48.978;8.982;2024-03-29T04:27:25;7.03;81.49
71047;SHT31;58703;48.978;8.982;2024-03-29T04:29:54;7.03;81.35
71047;SHT31;58703;48.978;8.982;2024-03-29T04:32:20;6.96;82.89
71047;SHT31;58703;48.978;8.982;2024-03-29T04:34:47;6.99;83.01
71047;SHT31;58703;48.978;8.982;2024-03-29T04:37:13;7.00;82.44
71047;SHT31;58703;48.978;8.982;2024-03-29T04:39:39;6.97;83.19
71047;SHT31;58703;48.978;8.982;2024-03-29T04:42:04;6.89;83.58
71047;SHT31;58703;48.978;8.982;2024-03-29T04:44:30;6.90;82.67
71047;SHT31;58703;48.978;8.982;2024-03-29T04:46:55;6.87;83.65
71047;SHT31;58703;48.978;8.982;2024-03-29T04:49:22;6.82;84.22
71047;SHT31;58703;48.978;8.982;2024-03-29T04:51:54;6.72;83.93
71047;SHT31;58703;48.978;8.982;2024-03-29T04:54:19;6.75;85.23
71047;SHT31;58703;48.978;8.982;2024-03-29T04:56:45;6.68;85.07
71047;SHT31;58703;48.978;8.982;2024-03-29T04:59:10;6.66;86.44
71047;SHT31;58703;48.978;8.982;2024-03-29T05:01:36;6.69;86.23
71047;SHT31;58703;48.978;8.982;2024-03-29T05:04:02;6.68;86.57
71047;SHT31;58703;48.978;8.982;2024-03-29T05:06:29;6.71;85.90
71047;SHT31;58703;48.978;8.982;2024-03-29T05:08:55;6.72;85.68
71047;SHT31;58703;48.978;8.982;2024-03-29T05:11:20;6.76;86.13
71047;SHT31;58703;48.978;8.982;2024-03-29T05:13:47;6.76;85.52
71047;SHT31;58703;48.978;8.982;2024-03-29T05:16:12;6.89;83.40
71047;SHT31;58703;48.978;8.982;2024-03-29T05:18:38;6.99;83.34
71047;SHT31;58703;48.978;8.982;2024-03-29T05:21:04;7.17;81.62
71047;SHT31;58703;48.978;8.982;2024-03-29T05:23:29;7.23;81.27
71047;SHT31;58703;48.978;8.982;2024-03-29T05:25:55;7.32;80.70
71047;SHT31;58703;48.978;8.982;2024-03-29T05:28:21;7.43;79.97
71047;SHT31;58703;48.978;8.982;2024-03-29T05:30:46;7.37;81.37
71047;SHT31;58703;48.978;8.982;2024-03-29T05:33:12;7.30;82.70
71047;SHT31;58703;48.978;8.982;2024-03-29T05:35:38;7.26;82.69
71047;SHT31;58703;48.978;8.982;2024-03-29T05:38:03;7.06;83.98
71047;SHT31;58703;48.978;8.982;2024-03-29T05:40:29;7.10;83.56
71047;SHT31;58703;48.978;8.982;2024-03-29T05:42:55;7.20;84.23
71047;SHT31;58703;48.978;8.982;2024-03-29T05:45:29;7.18;84.03
71047;SHT31;58703;48.978;8.982;2024-03-29T05:47:56;7.11;84.74
71047;SHT31;58703;48.978;8.982;2024-03-29T05:50:22;6.97;85.51
71047;SHT31;58703;48.978;8.982;2024-03-29T05:52:49;6.90;84.37
71047;SHT31;58703;48.978;8.982;2024-03-29T05:55:14;7.00;84.92
71047;SHT31;58703;48.978;8.982;2024-03-29T05:57:40;7.13;84.95
71047;SHT31;58703;48.978;8.982;2024-03-29T06:00:11;7.06;85.99
71047;SHT31;58703;48.978;8.982;2024-03-29T06:02:37;7.06;85.25
71047;SHT31;58703;48.978;8.982;2024-03-29T06:05:03;7.17;84.47
71047;SHT31;58703;48.978;8.982;2024-03-29T06:07:31;7.28;84.75
71047;SHT31;58703;48.978;8.982;2024-03-29T06:10:01;7.32;85.12
71047;SHT31;58703;48.978;8.982;2024-03-29T06:12:33;7.28;84.99
71047;SHT31;58703;48.978;8.982;2024-03-29T06:15:00;7.27;84.80
71047;SHT31;58703;48.978;8.982;2024-03-29T06:17:44;7.35;83.38
71047;SHT31;58703;48.978;8.982;2024-03-29T06:20:11;7.48;84.03
71047;SHT31;58703;48.978;8.982;2024-03-29T06:22:36;7.37;83.93
71047;SHT31;58703;48.978;8.982;2024-03-29T06:25:02;7.44;84.26
71047;SHT31;58703;48.978;8.982;2024-03-29T06:27:31;7.68;83.66
71047;SHT31;58703;48.978;8.982;2024-03-29T06:29:57;7.64;84.00
71047;SHT31;58703;48.978;8.982;2024-03-29T06:32:22;7.74;82.53
71047;SHT31;58703;48.978;8.982;2024-03-29T06:34:48;7.71;83.78
71047;SHT31;58703;48.978;8.982;2024-03-29T06:37:13;7.86;81.12
71047;SHT31;58703;48.978;8.982;2024-03-29T06:39:39;8.16;79.59
71047;SHT31;58703;48.978;8.982;2024-03-29T06:42:05;8.32;81.07
71047;SHT31;58703;48.978;8.982;2024-03-29T06:44:34;8.39;78.01
71047;SHT31;58703;48.978;8.982;2024-03-29T06:46:59;8.54;79.00
71047;SHT31;58703;48.978;8.982;2024-03-29T06:49:25;8.70;78.27
71047;SHT31;58703;48.978;8.982;2024-03-29T06:51:51;8.91;78.94
71047;SHT31;58703;48.978;8.982;2024-03-29T06:54:16;9.03;76.63
71047;SHT31;58703;48.978;8.982;2024-03-29T06:56:42;9.35;76.85
71047;SHT31;58703;48.978;8.982;2024-03-29T06:59:08;9.56;73.33
71047;SHT31;58703;48.978;8.982;2024-03-29T07:01:33;9.75;74.73
71047;SHT31;58703;48.978;8.982;2024-03-29T07:03:59;9.89;72.68
71047;SHT31;58703;48.978;8.982;2024-03-29T07:06:24;10.13;73.95
71047;SHT31;58703;48.978;8.982;2024-03-29T07:08:50;10.30;71.66
71047;SHT31;58703;48.978;8.982;2024-03-29T07:11:16;10.40;72.97
71047;SHT31;58703;48.978;8.982;2024-03-29T07:13:41;10.45;73.32
71047;SHT31;58703;48.978;8.982;2024-03-29T07:16:07;10.36;71.29
71047;SHT31;58703;48.978;8.982;2024-03-29T07:18:33;10.24;71.49
71047;SHT31;58703;48.978;8.982;2024-03-29T07:20:58;10.22;69.45
71047;SHT31;58703;48.978;8.982;2024-03-29T07:23:24;10.36;69.86
71047;SHT31;58703;48.978;8.982;2024-03-29T07:25:59;10.13;69.54
71047;SHT31;58703;48.978;8.982;2024-03-29T07:28:25;10.07;70.35
71047;SHT31;58703;48.978;8.982;2024-03-29T07:30:51;10.21;68.93
71047;SHT31;58703;48.978;8.982;2024-03-29T07:33:19;10.14;67.39
71047;SHT31;58703;48.978;8.982;2024-03-29T07:35:47;10.14;69.63
71047;SHT31;58703;48.978;8.982;2024-03-29T07:38:13;10.01;70.22
71047;SHT31;58703;48.978;8.982;2024-03-29T07:40:42;9.75;71.95
71047;SHT31;58703;48.978;8.982;2024-03-29T07:43:08;9.65;73.99
71047;SHT31;58703;48.978;8.982;2024-03-29T07:45:34;9.52;75.79
71047;SHT31;58703;48.978;8.982;2024-03-29T07:47:59;9.53;78.03
71047;SHT31;58703;48.978;8.982;2024-03-29T07:50:25;9.25;79.81
71047;SHT31;58703;48.978;8.982;2024-03-29T07:52:51;8.95;82.52
71047;SHT31;58703;48.978;8.982;2024-03-29T07:55:16;8.68;84.49
71047;SHT31;58703;48.978;8.982;2024-03-29T07:57:42;8.32;85.00
71047;SHT31;58703;48.978;8.982;2024-03-29T08:00:08;8.26;86.44
71047;SHT31;58703;48.978;8.982;2024-03-29T08:02:35;8.22;86.63
71047;SHT31;58703;48.978;8.982;2024-03-29T08:05:01;8.12;85.13
71047;SHT31;58703;48.978;8.982;2024-03-29T08:07:26;8.01;85.35
71047;SHT31;58703;48.978;8.982;2024-03-29T08:09:52;7.96;86.54
71047;SHT31;58703;48.978;8.982;2024-03-29T08:12:18;7.86;86.35
71047;SHT31;58703;48.978;8.982;2024-03-29T08:14:43;7.75;87.93
71047;SHT31;58703;48.978;8.982;2024-03-29T08:17:09;7.71;90.37
71047;SHT31;58703;48.978;8.982;2024-03-29T08:19:41;7.57;91.52
71047;SHT31;58703;48.978;8.982;2024-03-29T08:22:09;7.52;92.75
71047;SHT31;58703;48.978;8.982;2024-03-29T08:24:36;7.50;94.10
71047;SHT31;58703;48.978;8.982;2024-03-29T08:27:02;7.43;94.04
71047;SHT31;58703;48.978;8.982;2024-03-29T08:29:28;7.44;93.31
71047;SHT31;58703;48.978;8.982;2024-03-29T08:31:53;7.47;92.76
71047;SHT31;58703;48.978;8.982;2024-03-29T08:34:19;7.51;92.57
71047;SHT31;58703;48.978;8.982;2024-03-29T08:36:44;7.54;93.21
71047;SHT31;58703;48.978;8.982;2024-03-29T08:39:10;7.55;93.31
71047;SHT31;58703;48.978;8.982;2024-03-29T08:41:36;7.54;91.25
71047;SHT31;58703;48.978;8.982;2024-03-29T08:44:02;7.57;92.88
71047;SHT31;58703;48.978;8.982;2024-03-29T08:46:28;7.69;93.59
71047;SHT31;58703;48.978;8.982;2024-03-29T08:48:54;7.77;94.07
71047;SHT31;58703;48.978;8.982;2024-03-29T08:51:20;7.82;94.17
71047;SHT31;58703;48.978;8.982;2024-03-29T08:53:46;7.96;94.66
71047;SHT31;58703;48.978;8.982;2024-03-29T08:56:12;8.07;94.29
71047;SHT31;58703;48.978;8.982;2024-03-29T08:58:38;8.17;93.93
71047;SHT31;58703;48.978;8.982;2024-03-29T09:01:04;8.28;94.50
71047;SHT31;58703;48.978;8.982;2024-03-29T09:03:30;8.39;94.52
71047;SHT31;58703;48.978;8.982;2024-03-29T09:05:56;8.54;93.79
71047;SHT31;58703;48.978;8.982;2024-03-29T09:08:22;8.74;96.05
71047;SHT31;58703;48.978;8.982;2024-03-29T09:10:48;8.98;96.28
71047;SHT31;58703;48.978;8.982;2024-03-29T09:13:14;9.19;96.21
71047;SHT31;58703;48.978;8.982;2024-03-29T09:15:39;9.25;94.72
71047;SHT31;58703;48.978;8.982;2024-03-29T09:18:05;9.39;94.57
71047;SHT31;58703;48.978;8.982;2024-03-29T09:20:45;9.49;92.85
71047;SHT31;58703;48.978;8.982;2024-03-29T09:23:11;9.62;93.75
71047;SHT31;58703;48.978;8.982;2024-03-29T09:25:41;9.43;93.99
71047;SHT31;58703;48.978;8.982;2024-03-29T09:28:06;9.18;96.30
71047;SHT31;58703;48.978;8.982;2024-03-29T09:30:33;9.32;97.21
71047;SHT31;58703;48.978;8.982;2024-03-29T09:32:58;9.38;96.57
71047;SHT31;58703;48.978;8.982;2024-03-29T09:35:24;8.97;96.57
71047;SHT31;58703;48.978;8.982;2024-03-29T09:37:50;8.85;97.25
71047;SHT31;58703;48.978;8.982;2024-03-29T09:40:15;8.81;96.66
71047;SHT31;58703;48.978;8.982;2024-03-29T09:42:44;8.84;97.32
71047;SHT31;58703;48.978;8.982;2024-03-29T09:45:10;8.83;98.34
71047;SHT31;58703;48.978;8.982;2024-03-29T09:47:37;8.78;97.83
71047;SHT31;58703;48.978;8.982;2024-03-29T09:50:03;8.89;97.94
71047;SHT31;58703;48.978;8.982;2024-03-29T09:52:33;8.88;97.97
71047;SHT31;58703;48.978;8.982;2024-03-29T09:55:00;9.04;98.37
71047;SHT31;58703;48.978;8.982;2024-03-29T09:57:26;9.10;97.61
71047;SHT31;58703;48.978;8.982;2024-03-29T09:59:55;9.42;98.37
71047;SHT31;58703;48.978;8.982;2024-03-29T10:02:21;9.49;98.07
71047;SHT31;58703;48.978;8.982;2024-03-29T10:04:50;9.58;99.36
71047;SHT31;58703;48.978;8.982;2024-03-29T10:07:17;9.69;99.62
71047;SHT31;58703;48.978;8.982;2024-03-29T10:09:43;9.65;99.99
71047;SHT31;58703;48.978;8.982;2024-03-29T10:12:12;9.67;99.99
71047;SHT31;58703;48.978;8.982;2024-03-29T10:14:47;9.86;99.99
71047;SHT31;58703;48.978;8.982;2024-03-29T10:17:20;10.04;99.99
71047;SHT31;58703;48.978;8.982;2024-03-29T10:19:46;10.07;99.70
71047;SHT31;58703;48.978;8.982;2024-03-29T10:22:12;10.17;99.99
71047;SHT31;58703;48.978;8.982;2024-03-29T10:24:38;10.14;99.28
71047;SHT31;58703;48.978;8.982;2024-03-29T10:27:04;10.28;99.40
71047;SHT31;58703;48.978;8.982;2024-03-29T10:29:30;10.30;99.99
71047;SHT31;58703;48.978;8.982;2024-03-29T10:31:56;9.77;98.94
71047;SHT31;58703;48.978;8.982;2024-03-29T10:34:22;9.63;99.38
71047;SHT31;58703;48.978;8.982;2024-03-29T10:36:49;9.65;98.52
71047;SHT31;58703;48.978;8.982;2024-03-29T10:39:16;9.94;98.00
71047;SHT31;58703;48.978;8.982;2024-03-29T10:41:43;10.38;97.95
71047;SHT31;58703;48.978;8.982;2024-03-29T10:44:10;10.28;98.34
71047;SHT31;58703;48.978;8.982;2024-03-29T10:46:40;10.11;97.61
71047;SHT31;58703;48.978;8.982;2024-03-29T10:49:14;10.33;97.38
71047;SHT31;58703;48.978;8.982;2024-03-29T10:51:42;10.82;97.18
71047;SHT31;58703;48.978;8.982;2024-03-29T10:54:09;11.06;95.99
71047;SHT31;58703;48.978;8.982;2024-03-29T10:56:36;11.20;94.57
71047;SHT31;58703;48.978;8.982;2024-03-29T11:01:39;11.12;94.28
71047;SHT31;58703;48.978;8.982;2024-03-29T11:04:13;11.09;94.65
71047;SHT31;58703;48.978;8.982;2024-03-29T11:06:42;11.27;94.92
71047;SHT31;58703;48.978;8.982;2024-03-29T11:09:12;11.43;94.27
71047;SHT31;58703;48.978;8.982;2024-03-29T11:11:43;11.54;94.61
71047;SHT31;58703;48.978;8.982;2024-03-29T11:14:15;11.87;93.68
71047;SHT31;58703;48.978;8.982;2024-03-29T11:16:43;11.88;94.23
71047;SHT31;58703;48.978;8.982;2024-03-29T11:19:14;11.90;91.58
71047;SHT31;58703;48.978;8.982;2024-03-29T11:21:41;11.71;91.82
71047;SHT31;58703;48.978;8.982;2024-03-29T11:24:08;11.78;89.97
71047;SHT31;58703;48.978;8.982;2024-03-29T11:26:34;11.53;89.20
71047;SHT31;58703;48.978;8.982;2024-03-29T11:29:00;11.44;90.18
71047;SHT31;58703;48.978;8.982;2024-03-29T11:31:27;11.62;90.19
71047;SHT31;58703;48.978;8.982;2024-03-29T11:33:53;11.84;90.76
71047;SHT31;58703;48.978;8.982;2024-03-29T11:36:21;12.15;90.43
71047;SHT31;58703;48.978;8.982;2024-03-29T11:38:51;11.94;89.33
71047;SHT31;58703;48.978;8.982;2024-03-29T11:41:18;11.73;88.86
71047;SHT31;58703;48.978;8.982;2024-03-29T11:43:45;12.08;91.35
71047;SHT31;58703;48.978;8.982;2024-03-29T11:46:14;12.13;89.48
71047;SHT31;58703;48.978;8.982;2024-03-29T11:48:41;11.90;89.30
71047;SHT31;58703;48.978;8.982;2024-03-29T11:51:10;11.88;90.58
71047;SHT31;58703;48.978;8.982;2024-03-29T11:53:36;12.05;90.66
71047;SHT31;58703;48.978;8.982;2024-03-29T11:56:03;12.17;90.91
71047;SHT31;58703;48.978;8.982;2024-03-29T11:58:31;12.13;90.01
71047;SHT31;58703;48.978;8.982;2024-03-29T12:00:58;12.10;91.10
71047;SHT31;58703;48.978;8.982;2024-03-29T12:03:25;11.91;91.55
71047;SHT31;58703;48.978;8.982;2024-03-29T12:05:52;11.97;91.37
71047;SHT31;58703;48.978;8.982;2024-03-29T12:08:30;11.91;90.44
71047;SHT31;58703;48.978;8.982;2024-03-29T12:11:01;11.93;92.38
71047;SHT31;58703;48.978;8.982;2024-03-29T12:13:27;11.97;90.62
71047;SHT31;58703;48.978;8.982;2024-03-29T12:15:53;12.07;91.24
71047;SHT31;58703;48.978;8.982;2024-03-29T12:18:20;12.07;90.63
71047;SHT31;58703;48.978;8.982;2024-03-29T12:20:45;12.01;90.71
71047;SHT31;58703;48.978;8.982;2024-03-29T12:23:19;12.02;91.07
71047;SHT31;58703;48.978;8.982;2024-03-29T12:25:45;12.21;91.18
71047;SHT31;58703;48.978;8.982;2024-03-29T12:28:12;12.41;91.40
71047;SHT31;58703;48.978;8.982;2024-03-29T12:30:41;12.29;89.25
71047;SHT31;58703;48.978;8.982;2024-03-29T12:33:18;12.52;90.60
71047;SHT31;58703;48.978;8.982;2024-03-29T12:35:48;12.53;91.82
71047;SHT31;58703;48.978;8.982;2024-03-29T12:38:16;12.58;89.42
71047;SHT31;58703;48.978;8.982;2024-03-29T12:40:42;12.62;89.43
71047;SHT31;58703;48.978;8.982;2024-03-29T12:43:10;12.75;90.04
71047;SHT31;58703;48.978;8.982;2024-03-29T12:45:37;12.35;89.86
71047;SHT31;58703;48.978;8.982;2024-03-29T12:48:09;12.42;91.61
71047;SHT31;58703;48.978;8.982;2024-03-29T12:50:35;12.28;90.20
71047;SHT31;58703;48.978;8.982;2024-03-29T12:53:05;12.26;91.34
71047;SHT31;58703;48.978;8.982;2024-03-29T12:55:31;12.44;91.45
71047;SHT31;58703;48.978;8.982;2024-03-29T12:57:59;12.32;91.06
71047;SHT31;58703;48.978;8.982;2024-03-29T13:00:26;12.29;92.15
71047;SHT31;58703;48.978;8.982;2024-03-29T13:02:52;12.42;91.23
71047;SHT31;58703;48.978;8.982;2024-03-29T13:05:18;12.22;91.34
71047;SHT31;58703;48.978;8.982;2024-03-29T13:07:44;12.02;90.92
71047;SHT31;58703;48.978;8.982;2024-03-29T13:10:09;11.97;92.37
71047;SHT31;58703;48.978;8.982;2024-03-29T13:12:42;12.01;91.59
71047;SHT31;58703;48.978;8.982;2024-03-29T13:15:22;11.90;92.00
71047;SHT31;58703;48.978;8.982;2024-03-29T13:17:51;11.98;93.59
71047;SHT31;58703;48.978;8.982;2024-03-29T13:20:17;12.02;93.80
71047;SHT31;58703;48.978;8.982;2024-03-29T13:22:44;12.18;93.46
71047;SHT31;58703;48.978;8.982;2024-03-29T13:25:12;12.07;92.54
71047;SHT31;58703;48.978;8.982;2024-03-29T13:27:39;12.04;94.06
71047;SHT31;58703;48.978;8.982;2024-03-29T13:30:06;12.20;93.48
71047;SHT31;58703;48.978;8.982;2024-03-29T13:32:32;12.46;93.58
71047;SHT31;58703;48.978;8.982;2024-03-29T13:35:02;12.83;93.13
71047;SHT31;58703;48.978;8.982;2024-03-29T13:37:33;13.58;91.12
71047;SHT31;58703;48.978;8.982;2024-03-29T13:39:59;13.97;90.89
71047;SHT31;58703;48.978;8.982;2024-03-29T13:42:24;13.71;88.81
71047;SHT31;58703;48.978;8.982;2024-03-29T13:44:53;14.36;89.60
71047;SHT31;58703;48.978;8.982;2024-03-29T13:47:18;14.69;86.87
71047;SHT31;58703;48.978;8.982;2024-03-29T13:49:45;14.60;87.34
71047;SHT31;58703;48.978;8.982;2024-03-29T13:52:12;14.69;87.20
71047;SHT31;58703;48.978;8.982;2024-03-29T13:54:42;14.93;87.95
71047;SHT31;58703;48.978;8.982;2024-03-29T13:57:08;14.87;86.00
71047;SHT31;58703;48.978;8.982;2024-03-29T13:59:33;15.03;85.07
71047;SHT31;58703;48.978;8.982;2024-03-29T14:01:59;15.35;84.14
71047;SHT31;58703;48.978;8.982;2024-03-29T14:04:25;16.05;82.79
71047;SHT31;58703;48.978;8.982;2024-03-29T14:06:50;16.34;83.36
71047;SHT31;58703;48.978;8.982;2024-03-29T14:09:16;16.48;82.66
71047;SHT31;58703;48.978;8.982;2024-03-29T14:11:43;15.79;82.05
71047;SHT31;58703;48.978;8.982;2024-03-29T14:14:09;15.66;82.01
71047;SHT31;58703;48.978;8.982;2024-03-29T14:16:36;15.69;81.59
71047;SHT31;58703;48.978;8.982;2024-03-29T14:19:03;15.66;80.16
71047;SHT31;58703;48.978;8.982;2024-03-29T14:21:29;15.66;78.55
71047;SHT31;58703;48.978;8.982;2024-03-29T14:23:54;16.13;79.49
71047;SHT31;58703;48.978;8.982;2024-03-29T14:26:20;16.26;80.82
71047;SHT31;58703;48.978;8.982;2024-03-29T14:28:45;16.13;82.51
71047;SHT31;58703;48.978;8.982;2024-03-29T14:31:11;15.95;82.26
71047;SHT31;58703;48.978;8.982;2024-03-29T14:33:36;15.89;81.30
71047;SHT31;58703;48.978;8.982;2024-03-29T14:36:03;15.65;81.17
71047;SHT31;58703;48.978;8.982;2024-03-29T14:38:29;15.90;82.45
71047;SHT31;58703;48.978;8.982;2024-03-29T14:40:55;15.97;80.84
71047;SHT31;58703;48.978;8.982;2024-03-29T14:43:21;16.44;81.55
71047;SHT31;58703;48.978;8.982;2024-03-29T14:45:46;17.11;78.98
71047;SHT31;58703;48.978;8.982;2024-03-29T14:48:17;16.85;77.46
71047;SHT31;58703;48.978;8.982;2024-03-29T14:50:43;17.02;77.99
71047;SHT31;58703;48.978;8.982;2024-03-29T14:53:09;17.82;77.00
71047;SHT31;58703;48.978;8.982;2024-03-29T14:55:35;17.86;74.54
71047;SHT31;58703;48.978;8.982;2024-03-29T14:58:05;18.44;73.37
71047;SHT31;58703;48.978;8.982;2024-03-29T15:00:31;19.03;70.81
71047;SHT31;58703;48.978;8.982;2024-03-29T15:02:57;18.76;70.99
71047;SHT31;58703;48.978;8.982;2024-03-29T15:05:23;18.25;73.02
71047;SHT31;58703;48.978;8.982;2024-03-29T15:07:51;17.83;73.11
71047;SHT31;58703;48.978;8.982;2024-03-29T15:10:17;18.38;73.07
71047;SHT31;58703;48.978;8.982;2024-03-29T15:12:45;18.94;72.50
71047;SHT31;58703;48.978;8.982;2024-03-29T15:15:13;19.30;70.91
71047;SHT31;58703;48.978;8.982;2024-03-29T15:17:39;19.20;70.58
71047;SHT31;58703;48.978;8.982;2024-03-29T15:20:05;18.99;70.47
71047;SHT31;58703;48.978;8.982;2024-03-29T15:22:35;18.27;72.57
71047;SHT31;58703;48.978;8.982;2024-03-29T15:25:01;18.72;71.96
71047;SHT31;58703;48.978;8.982;2024-03-29T15:27:26;18.82;70.58
71047;SHT31;58703;48.978;8.982;2024-03-29T15:30:15;19.90;69.09
71047;SHT31;58703;48.978;8.982;2024-03-29T15:32:41;20.39;68.12
71047;SHT31;58703;48.978;8.982;2024-03-29T15:35:08;19.66;68.73
71047;SHT31;58703;48.978;8.982;2024-03-29T15:37:34;19.31;68.90
71047;SHT31;58703;48.978;8.982;2024-03-29T15:40:00;18.98;69.24